PWSweather.com
Personal Weather Stations
Station Observations
CW3999
Hillsboro, OR 97123

Hillsboro, OR 97123

Lat: 45.4667, Lon: -122.951

Elevation: 155

Station Type: Davis Vantage Pro2

High Low Average
Temperature 72.3°F22.4°C 39.4°F4.1°C 55.8°F13.2°C
Dew Point 51.1°F10.6°C 36.5°F2.5°C 45.1°F7.3°C
Winds 6.7 mph 10.8 kmh Calm Calm 2.0 mph SW3.2 kmh SW
Wind Gusts 10.1 mph16.3 kmh -- 2.0 mph3.2 kmh
Humidity 90% 36% 70%
Pressure 30.23 in1023.7 mb 30.14 in1020.7 mb -
Precipitation 0.00 in0.0 mm - -
Hour Temp Dew Point Humidity Winds Wind Gusts Pressure Precip Precip Rate Daily Precip Total
12:02 AM 48.4°F9.1°C 43.7°F6.5°C 84% Calm Calm -- 30.17 in1021.7 mb - 0.00 in0.0 mm 0.00 in0.0 mm
12:07 AM 48.4°F9.1°C 43.7°F6.5°C 84% Calm Calm -- 30.17 in1021.7 mb - 0.00 in0.0 mm 0.00 in0.0 mm
12:12 AM 48.2°F9.0°C 43.9°F6.6°C 85% Calm Calm -- 30.17 in1021.7 mb - 0.00 in0.0 mm 0.00 in0.0 mm
12:17 AM 48.2°F9.0°C 43.9°F6.6°C 85% Calm Calm -- 30.18 in1022.0 mb - 0.00 in0.0 mm 0.00 in0.0 mm
12:22 AM 48.7°F9.3°C 44.4°F6.9°C 85% Calm Calm -- 30.18 in1022.0 mb - 0.00 in0.0 mm 0.00 in0.0 mm
12:27 AM 49.3°F9.6°C 45.0°F7.2°C 85% Calm Calm -- 30.18 in1022.0 mb - 0.00 in0.0 mm 0.00 in0.0 mm
12:32 AM 49.1°F9.5°C 44.4°F6.9°C 84% Calm Calm -- 30.17 in1021.7 mb - 0.00 in0.0 mm 0.00 in0.0 mm
12:37 AM 47.7°F8.7°C 43.0°F6.1°C 84% Calm Calm -- 30.18 in1022.0 mb - 0.00 in0.0 mm 0.00 in0.0 mm
12:42 AM 46.8°F8.2°C 42.4°F5.8°C 85% Calm Calm -- 30.18 in1022.0 mb - 0.00 in0.0 mm 0.00 in0.0 mm
12:47 AM 46.2°F7.9°C 41.9°F5.5°C 85% Calm Calm -- 30.18 in1022.0 mb - 0.00 in0.0 mm 0.00 in0.0 mm
12:52 AM 46.4°F8.0°C 42.4°F5.8°C 86% Calm Calm -- 30.18 in1022.0 mb - 0.00 in0.0 mm 0.00 in0.0 mm
12:57 AM 46.4°F8.0°C 42.4°F5.8°C 86% Calm Calm -- 30.18 in1022.0 mb - 0.00 in0.0 mm 0.00 in0.0 mm
01:02 AM 46.2°F7.9°C 42.3°F5.7°C 86% Calm Calm -- 30.18 in1022.0 mb - 0.00 in0.0 mm 0.00 in0.0 mm
01:07 AM 46.0°F7.8°C 42.1°F5.6°C 86% Calm Calm -- 30.18 in1022.0 mb - 0.00 in0.0 mm 0.00 in0.0 mm
01:12 AM 46.2°F7.9°C 42.3°F5.7°C 86% Calm Calm -- 30.18 in1022.0 mb - 0.00 in0.0 mm 0.00 in0.0 mm
01:17 AM 46.4°F8.0°C 42.4°F5.8°C 86% Calm Calm -- 30.18 in1022.0 mb - 0.00 in0.0 mm 0.00 in0.0 mm
01:22 AM 46.4°F8.0°C 42.4°F5.8°C 86% Calm Calm -- 30.18 in1022.0 mb - 0.00 in0.0 mm 0.00 in0.0 mm
01:27 AM 46.0°F7.8°C 42.1°F5.6°C 86% Calm Calm -- 30.18 in1022.0 mb - 0.00 in0.0 mm 0.00 in0.0 mm
01:32 AM 45.7°F7.6°C 41.7°F5.4°C 86% Calm Calm -- 30.18 in1022.0 mb - 0.00 in0.0 mm 0.00 in0.0 mm
01:37 AM 45.7°F7.6°C 41.7°F5.4°C 86% Calm Calm -- 30.18 in1022.0 mb - 0.00 in0.0 mm 0.00 in0.0 mm
01:42 AM 45.3°F7.4°C 41.4°F5.2°C 86% Calm Calm -- 30.18 in1022.0 mb - 0.00 in0.0 mm 0.00 in0.0 mm
01:47 AM 45.0°F7.2°C 41.4°F5.2°C 87% Calm Calm -- 30.18 in1022.0 mb - 0.00 in0.0 mm 0.00 in0.0 mm
01:52 AM 44.8°F7.1°C 40.8°F4.9°C 86% Calm Calm -- 30.18 in1022.0 mb - 0.00 in0.0 mm 0.00 in0.0 mm
01:57 AM 45.0°F7.2°C 41.4°F5.2°C 87% Calm Calm -- 30.18 in1022.0 mb - 0.00 in0.0 mm 0.00 in0.0 mm
02:02 AM 45.1°F7.3°C 41.5°F5.3°C 87% Calm Calm -- 30.18 in1022.0 mb - 0.00 in0.0 mm 0.00 in0.0 mm
02:07 AM 45.1°F7.3°C 41.5°F5.3°C 87% Calm Calm -- 30.18 in1022.0 mb - 0.00 in0.0 mm 0.00 in0.0 mm
02:12 AM 45.1°F7.3°C 41.5°F5.3°C 87% Calm Calm -- 30.18 in1022.0 mb - 0.00 in0.0 mm 0.00 in0.0 mm
02:17 AM 44.4°F6.9°C 40.5°F4.7°C 86% Calm Calm -- 30.18 in1022.0 mb - 0.00 in0.0 mm 0.00 in0.0 mm
02:22 AM 43.7°F6.5°C 40.1°F4.5°C 87% Calm Calm -- 30.18 in1022.0 mb - 0.00 in0.0 mm 0.00 in0.0 mm
02:27 AM 43.2°F6.2°C 39.6°F4.2°C 87% Calm Calm -- 30.18 in1022.0 mb - 0.00 in0.0 mm 0.00 in0.0 mm
02:32 AM 43.2°F6.2°C 39.6°F4.2°C 87% Calm Calm -- 30.17 in1021.7 mb - 0.00 in0.0 mm 0.00 in0.0 mm
02:37 AM 43.2°F6.2°C 39.6°F4.2°C 87% Calm Calm -- 30.17 in1021.7 mb - 0.00 in0.0 mm 0.00 in0.0 mm
02:42 AM 43.2°F6.2°C 39.6°F4.2°C 87% Calm Calm -- 30.17 in1021.7 mb - 0.00 in0.0 mm 0.00 in0.0 mm
02:47 AM 42.8°F6.0°C 39.2°F4.0°C 87% Calm Calm -- 30.17 in1021.7 mb - 0.00 in0.0 mm 0.00 in0.0 mm
02:52 AM 43.3°F6.3°C 40.1°F4.5°C 88% Calm Calm -- 30.17 in1021.7 mb - 0.00 in0.0 mm 0.00 in0.0 mm
02:57 AM 43.2°F6.2°C 39.6°F4.2°C 87% Calm Calm -- 30.17 in1021.7 mb - 0.00 in0.0 mm 0.00 in0.0 mm
03:02 AM 43.2°F6.2°C 39.9°F4.4°C 88% Calm Calm -- 30.17 in1021.7 mb - 0.00 in0.0 mm 0.00 in0.0 mm
03:07 AM 43.3°F6.3°C 40.1°F4.5°C 88% Calm Calm -- 30.17 in1021.7 mb - 0.00 in0.0 mm 0.00 in0.0 mm
03:12 AM 43.3°F6.3°C 40.1°F4.5°C 88% Calm Calm -- 30.17 in1021.7 mb - 0.00 in0.0 mm 0.00 in0.0 mm
03:17 AM 43.3°F6.3°C 40.1°F4.5°C 88% Calm Calm -- 30.18 in1022.0 mb - 0.00 in0.0 mm 0.00 in0.0 mm
03:22 AM 43.2°F6.2°C 39.9°F4.4°C 88% Calm Calm -- 30.18 in1022.0 mb - 0.00 in0.0 mm 0.00 in0.0 mm
03:27 AM 43.2°F6.2°C 39.9°F4.4°C 88% Calm Calm -- 30.18 in1022.0 mb - 0.00 in0.0 mm 0.00 in0.0 mm
03:32 AM 43.2°F6.2°C 39.9°F4.4°C 88% Calm Calm -- 30.18 in1022.0 mb - 0.00 in0.0 mm 0.00 in0.0 mm
03:37 AM 43.0°F6.1°C 39.7°F4.3°C 88% Calm Calm -- 30.18 in1022.0 mb - 0.00 in0.0 mm 0.00 in0.0 mm
03:42 AM 42.8°F6.0°C 39.6°F4.2°C 88% Calm Calm -- 30.18 in1022.0 mb - 0.00 in0.0 mm 0.00 in0.0 mm
03:47 AM 42.4°F5.8°C 39.2°F4.0°C 88% Calm Calm -- 30.18 in1022.0 mb - 0.00 in0.0 mm 0.00 in0.0 mm
03:52 AM 42.8°F6.0°C 39.6°F4.2°C 88% Calm Calm -- 30.18 in1022.0 mb - 0.00 in0.0 mm 0.00 in0.0 mm
03:57 AM 43.2°F6.2°C 39.9°F4.4°C 88% Calm Calm -- 30.18 in1022.0 mb - 0.00 in0.0 mm 0.00 in0.0 mm
04:02 AM 43.0°F6.1°C 39.7°F4.3°C 88% Calm Calm -- 30.18 in1022.0 mb - 0.00 in0.0 mm 0.00 in0.0 mm
04:07 AM 43.0°F6.1°C 39.7°F4.3°C 88% Calm Calm -- 30.18 in1022.0 mb - 0.00 in0.0 mm 0.00 in0.0 mm
04:12 AM 43.2°F6.2°C 39.9°F4.4°C 88% Calm Calm -- 30.18 in1022.0 mb - 0.00 in0.0 mm 0.00 in0.0 mm
04:17 AM 43.2°F6.2°C 39.9°F4.4°C 88% Calm Calm -- 30.18 in1022.0 mb - 0.00 in0.0 mm 0.00 in0.0 mm
04:22 AM 43.3°F6.3°C 40.1°F4.5°C 88% Calm Calm -- 30.18 in1022.0 mb - 0.00 in0.0 mm 0.00 in0.0 mm
04:27 AM 43.0°F6.1°C 39.7°F4.3°C 88% Calm Calm -- 30.18 in1022.0 mb - 0.00 in0.0 mm 0.00 in0.0 mm
04:32 AM 42.6°F5.9°C 39.4°F4.1°C 88% Calm Calm -- 30.18 in1022.0 mb - 0.00 in0.0 mm 0.00 in0.0 mm
04:37 AM 42.4°F5.8°C 39.2°F4.0°C 88% Calm Calm -- 30.18 in1022.0 mb - 0.00 in0.0 mm 0.00 in0.0 mm
04:42 AM 43.0°F6.1°C 39.7°F4.3°C 88% Calm Calm -- 30.18 in1022.0 mb - 0.00 in0.0 mm 0.00 in0.0 mm
04:47 AM 42.6°F5.9°C 39.4°F4.1°C 88% Calm Calm -- 30.18 in1022.0 mb - 0.00 in0.0 mm 0.00 in0.0 mm
04:52 AM 41.5°F5.3°C 38.3°F3.5°C 88% Calm Calm -- 30.18 in1022.0 mb - 0.00 in0.0 mm 0.00 in0.0 mm
04:57 AM 41.5°F5.3°C 38.3°F3.5°C 88% Calm Calm -- 30.18 in1022.0 mb - 0.00 in0.0 mm 0.00 in0.0 mm
05:02 AM 41.4°F5.2°C 38.1°F3.4°C 88% Calm Calm -- 30.18 in1022.0 mb - 0.00 in0.0 mm 0.00 in0.0 mm
05:07 AM 41.0°F5.0°C 37.8°F3.2°C 88% Calm Calm -- 30.19 in1022.4 mb - 0.00 in0.0 mm 0.00 in0.0 mm
05:32 AM 41.0°F5.0°C 37.9°F3.3°C 89% Calm Calm -- 30.18 in1022.0 mb - 0.00 in0.0 mm 0.00 in0.0 mm
05:37 AM 40.5°F4.7°C 37.4°F3.0°C 89% Calm Calm -- 30.19 in1022.4 mb - 0.00 in0.0 mm 0.00 in0.0 mm
05:42 AM 40.5°F4.7°C 37.4°F3.0°C 89% Calm Calm -- 30.19 in1022.4 mb - 0.00 in0.0 mm 0.00 in0.0 mm
05:47 AM 40.8°F4.9°C 37.8°F3.2°C 89% Calm Calm -- 30.19 in1022.4 mb - 0.00 in0.0 mm 0.00 in0.0 mm
05:52 AM 40.6°F4.8°C 37.6°F3.1°C 89% Calm Calm -- 30.19 in1022.4 mb - 0.00 in0.0 mm 0.00 in0.0 mm
05:57 AM 40.3°F4.6°C 37.2°F2.9°C 89% Calm Calm -- 30.19 in1022.4 mb - 0.00 in0.0 mm 0.00 in0.0 mm
06:02 AM 40.3°F4.6°C 37.2°F2.9°C 89% Calm Calm -- 30.19 in1022.4 mb - 0.00 in0.0 mm 0.00 in0.0 mm
06:07 AM 40.5°F4.7°C 37.4°F3.0°C 89% Calm Calm -- 30.19 in1022.4 mb - 0.00 in0.0 mm 0.00 in0.0 mm
06:12 AM 40.3°F4.6°C 37.2°F2.9°C 89% Calm Calm -- 30.19 in1022.4 mb - 0.00 in0.0 mm 0.00 in0.0 mm
06:17 AM 40.3°F4.6°C 37.2°F2.9°C 89% Calm Calm -- 30.19 in1022.4 mb - 0.00 in0.0 mm 0.00 in0.0 mm
06:22 AM 40.5°F4.7°C 37.4°F3.0°C 89% Calm Calm -- 30.19 in1022.4 mb - 0.00 in0.0 mm 0.00 in0.0 mm
06:27 AM 40.5°F4.7°C 37.4°F3.0°C 89% Calm Calm -- 30.19 in1022.4 mb - 0.00 in0.0 mm 0.00 in0.0 mm
06:32 AM 40.5°F4.7°C 37.4°F3.0°C 89% Calm Calm -- 30.20 in1022.7 mb - 0.00 in0.0 mm 0.00 in0.0 mm
06:37 AM 40.1°F4.5°C 37.0°F2.8°C 89% Calm Calm -- 30.20 in1022.7 mb - 0.00 in0.0 mm 0.00 in0.0 mm
06:42 AM 40.5°F4.7°C 37.4°F3.0°C 89% Calm Calm -- 30.20 in1022.7 mb - 0.00 in0.0 mm 0.00 in0.0 mm
06:47 AM 39.9°F4.4°C 36.9°F2.7°C 89% Calm Calm -- 30.20 in1022.7 mb - 0.00 in0.0 mm 0.00 in0.0 mm
06:52 AM 40.5°F4.7°C 37.4°F3.0°C 89% Calm Calm -- 30.20 in1022.7 mb - 0.00 in0.0 mm 0.00 in0.0 mm
06:57 AM 40.5°F4.7°C 37.4°F3.0°C 89% Calm Calm -- 30.21 in1023.0 mb - 0.00 in0.0 mm 0.00 in0.0 mm
07:02 AM 39.6°F4.2°C 36.5°F2.5°C 89% Calm Calm -- 30.21 in1023.0 mb - 0.00 in0.0 mm 0.00 in0.0 mm
07:07 AM 39.4°F4.1°C 36.5°F2.5°C 89% Calm Calm -- 30.21 in1023.0 mb - 0.00 in0.0 mm 0.00 in0.0 mm
07:12 AM 39.7°F4.3°C 36.7°F2.6°C 89% Calm Calm -- 30.21 in1023.0 mb - 0.00 in0.0 mm 0.00 in0.0 mm
07:17 AM 39.7°F4.3°C 36.7°F2.6°C 89% Calm Calm -- 30.21 in1023.0 mb - 0.00 in0.0 mm 0.00 in0.0 mm
07:22 AM 39.7°F4.3°C 36.7°F2.6°C 89% Calm Calm -- 30.21 in1023.0 mb - 0.00 in0.0 mm 0.00 in0.0 mm
07:27 AM 39.9°F4.4°C 36.9°F2.7°C 89% Calm Calm -- 30.21 in1023.0 mb - 0.00 in0.0 mm 0.00 in0.0 mm
07:32 AM 39.9°F4.4°C 36.9°F2.7°C 89% Calm Calm -- 30.21 in1023.0 mb - 0.00 in0.0 mm 0.00 in0.0 mm
07:37 AM 39.7°F4.3°C 37.0°F2.8°C 90% Calm Calm -- 30.22 in1023.4 mb - 0.00 in0.0 mm 0.00 in0.0 mm
07:42 AM 40.3°F4.6°C 37.6°F3.1°C 90% Calm Calm -- 30.21 in1023.0 mb - 0.00 in0.0 mm 0.00 in0.0 mm
07:47 AM 40.5°F4.7°C 37.8°F3.2°C 90% Calm Calm -- 30.21 in1023.0 mb - 0.00 in0.0 mm 0.00 in0.0 mm
07:52 AM 40.6°F4.8°C 37.9°F3.3°C 90% Calm Calm -- 30.22 in1023.4 mb - 0.00 in0.0 mm 0.00 in0.0 mm
07:57 AM 40.8°F4.9°C 38.1°F3.4°C 90% Calm Calm -- 30.22 in1023.4 mb - 0.00 in0.0 mm 0.00 in0.0 mm
08:02 AM 41.4°F5.2°C 38.7°F3.7°C 90% Calm Calm -- 30.22 in1023.4 mb - 0.00 in0.0 mm 0.00 in0.0 mm
08:07 AM 42.1°F5.6°C 39.4°F4.1°C 90% Calm Calm -- 30.22 in1023.4 mb - 0.00 in0.0 mm 0.00 in0.0 mm
08:12 AM 42.4°F5.8°C 39.7°F4.3°C 90% Calm Calm -- 30.22 in1023.4 mb - 0.00 in0.0 mm 0.00 in0.0 mm
08:17 AM 42.8°F6.0°C 40.1°F4.5°C 90% Calm Calm -- 30.22 in1023.4 mb - 0.00 in0.0 mm 0.00 in0.0 mm
08:22 AM 43.5°F6.4°C 40.8°F4.9°C 90% Calm Calm -- 30.22 in1023.4 mb - 0.00 in0.0 mm 0.00 in0.0 mm
08:27 AM 44.2°F6.8°C 41.5°F5.3°C 90% Calm Calm -- 30.22 in1023.4 mb - 0.00 in0.0 mm 0.00 in0.0 mm
08:32 AM 44.8°F7.1°C 42.1°F5.6°C 90% Calm Calm -- 30.22 in1023.4 mb - 0.00 in0.0 mm 0.00 in0.0 mm
08:37 AM 45.5°F7.5°C 42.8°F6.0°C 90% Calm Calm -- 30.22 in1023.4 mb - 0.00 in0.0 mm 0.00 in0.0 mm
08:42 AM 46.2°F7.9°C 43.5°F6.4°C 90% Calm Calm -- 30.22 in1023.4 mb - 0.00 in0.0 mm 0.00 in0.0 mm
08:47 AM 46.6°F8.1°C 43.9°F6.6°C 90% Calm Calm -- 30.22 in1023.4 mb - 0.00 in0.0 mm 0.00 in0.0 mm
08:52 AM 47.7°F8.7°C 45.0°F7.2°C 90% Calm Calm -- 30.22 in1023.4 mb - 0.00 in0.0 mm 0.00 in0.0 mm
08:57 AM 47.8°F8.8°C 44.8°F7.1°C 89% Calm Calm -- 30.22 in1023.4 mb - 0.00 in0.0 mm 0.00 in0.0 mm
09:02 AM 48.9°F9.4°C 45.5°F7.5°C 88% Calm Calm -- 30.22 in1023.4 mb - 0.00 in0.0 mm 0.00 in0.0 mm
09:07 AM 49.3°F9.6°C 45.5°F7.5°C 87% Calm Calm -- 30.22 in1023.4 mb - 0.00 in0.0 mm 0.00 in0.0 mm
09:12 AM 49.6°F9.8°C 45.7°F7.6°C 86% Calm Calm -- 30.22 in1023.4 mb - 0.00 in0.0 mm 0.00 in0.0 mm
09:17 AM 50.2°F10.1°C 45.9°F7.7°C 85% Calm Calm -- 30.22 in1023.4 mb - 0.00 in0.0 mm 0.00 in0.0 mm
09:22 AM 50.7°F10.4°C 46.4°F8.0°C 85% Calm Calm -- 30.22 in1023.4 mb - 0.00 in0.0 mm 0.00 in0.0 mm
09:27 AM 51.3°F10.7°C 46.6°F8.1°C 84% Calm Calm -- 30.22 in1023.4 mb - 0.00 in0.0 mm 0.00 in0.0 mm
09:32 AM 52.0°F11.1°C 47.3°F8.5°C 84% Calm Calm -- 30.22 in1023.4 mb - 0.00 in0.0 mm 0.00 in0.0 mm
09:37 AM 52.7°F11.5°C 47.7°F8.7°C 83% Calm Calm -- 30.22 in1023.4 mb - 0.00 in0.0 mm 0.00 in0.0 mm
09:42 AM 53.2°F11.8°C 48.2°F9.0°C 83% Calm Calm -- 30.22 in1023.4 mb - 0.00 in0.0 mm 0.00 in0.0 mm
09:47 AM 53.4°F11.9°C 48.0°F8.9°C 82% Calm Calm -- 30.22 in1023.4 mb - 0.00 in0.0 mm 0.00 in0.0 mm
09:52 AM 53.2°F11.8°C 47.8°F8.8°C 82% 0.2 mph NE0.3 kmh NE -- 30.23 in1023.7 mb - 0.00 in0.0 mm 0.00 in0.0 mm
09:57 AM 54.7°F12.6°C 49.3°F9.6°C 82% 0.2 mph NE0.3 kmh NE 2.0 mph3.2 kmh 30.22 in1023.4 mb - 0.00 in0.0 mm 0.00 in0.0 mm
10:02 AM 54.1°F12.3°C 48.0°F8.9°C 80% 0.4 mph NE0.6 kmh NE 0.9 mph1.4 kmh 30.23 in1023.7 mb - 0.00 in0.0 mm 0.00 in0.0 mm
10:07 AM 53.8°F12.1°C 47.8°F8.8°C 80% 0.9 mph NE1.4 kmh NE 0.9 mph1.4 kmh 30.22 in1023.4 mb - 0.00 in0.0 mm 0.00 in0.0 mm
10:12 AM 54.0°F12.2°C 48.6°F9.2°C 82% 0.7 mph NE1.1 kmh NE 2.9 mph4.7 kmh 30.22 in1023.4 mb - 0.00 in0.0 mm 0.00 in0.0 mm
10:17 AM 54.3°F12.4°C 48.6°F9.2°C 81% 1.8 mph NE2.9 kmh NE 2.9 mph4.7 kmh 30.23 in1023.7 mb - 0.00 in0.0 mm 0.00 in0.0 mm
10:22 AM 54.3°F12.4°C 48.6°F9.2°C 81% 2.7 mph ENE4.3 kmh ENE 2.9 mph4.7 kmh 30.23 in1023.7 mb - 0.00 in0.0 mm 0.00 in0.0 mm
10:27 AM 54.7°F12.6°C 48.9°F9.4°C 81% 2.0 mph N3.2 kmh N 2.9 mph4.7 kmh 30.23 in1023.7 mb - 0.00 in0.0 mm 0.00 in0.0 mm
10:32 AM 55.6°F13.1°C 49.8°F9.9°C 81% 2.2 mph NE3.5 kmh NE 2.0 mph3.2 kmh 30.23 in1023.7 mb - 0.00 in0.0 mm 0.00 in0.0 mm
10:37 AM 55.0°F12.8°C 49.3°F9.6°C 81% 2.2 mph SE3.5 kmh SE 0.9 mph1.4 kmh 30.23 in1023.7 mb - 0.00 in0.0 mm 0.00 in0.0 mm
10:42 AM 55.8°F13.2°C 49.3°F9.6°C 79% 2.5 mph E4.0 kmh E 4.9 mph7.9 kmh 30.23 in1023.7 mb - 0.00 in0.0 mm 0.00 in0.0 mm
10:47 AM 55.6°F13.1°C 49.5°F9.7°C 80% 2.5 mph ENE4.0 kmh ENE 4.0 mph6.4 kmh 30.22 in1023.4 mb - 0.00 in0.0 mm 0.00 in0.0 mm
10:52 AM 56.7°F13.7°C 49.8°F9.9°C 78% 1.8 mph NE2.9 kmh NE 2.9 mph4.7 kmh 30.23 in1023.7 mb - 0.00 in0.0 mm 0.00 in0.0 mm
10:57 AM 56.3°F13.5°C 49.1°F9.5°C 77% 2.5 mph NNE4.0 kmh NNE 4.9 mph7.9 kmh 30.23 in1023.7 mb - 0.00 in0.0 mm 0.00 in0.0 mm
11:02 AM 55.9°F13.3°C 49.1°F9.5°C 78% 3.6 mph NNE5.8 kmh NNE 2.0 mph3.2 kmh 30.23 in1023.7 mb - 0.00 in0.0 mm 0.00 in0.0 mm
11:07 AM 57.0°F13.9°C 49.8°F9.9°C 77% 2.9 mph NE4.7 kmh NE 4.0 mph6.4 kmh 30.23 in1023.7 mb - 0.00 in0.0 mm 0.00 in0.0 mm
11:12 AM 57.6°F14.2°C 50.0°F10.0°C 76% 2.7 mph N4.3 kmh N -- 30.23 in1023.7 mb - 0.00 in0.0 mm 0.00 in0.0 mm
11:17 AM 57.9°F14.4°C 50.4°F10.2°C 76% 2.2 mph NE3.5 kmh NE 6.0 mph9.7 kmh 30.22 in1023.4 mb - 0.00 in0.0 mm 0.00 in0.0 mm
11:22 AM 57.6°F14.2°C 49.6°F9.8°C 75% 2.2 mph ENE3.5 kmh ENE 2.9 mph4.7 kmh 30.22 in1023.4 mb - 0.00 in0.0 mm 0.00 in0.0 mm
11:27 AM 57.9°F14.4°C 50.0°F10.0°C 75% 2.9 mph NNW4.7 kmh NNW 2.0 mph3.2 kmh 30.22 in1023.4 mb - 0.00 in0.0 mm 0.00 in0.0 mm
11:32 AM 58.5°F14.7°C 50.5°F10.3°C 75% 2.9 mph NNE4.7 kmh NNE 4.0 mph6.4 kmh 30.22 in1023.4 mb - 0.00 in0.0 mm 0.00 in0.0 mm
11:37 AM 58.5°F14.7°C 49.8°F9.9°C 73% 3.1 mph NNE5.0 kmh NNE 2.0 mph3.2 kmh 30.22 in1023.4 mb - 0.00 in0.0 mm 0.00 in0.0 mm
11:42 AM 59.0°F15.0°C 50.4°F10.2°C 73% 3.4 mph N5.5 kmh N 4.0 mph6.4 kmh 30.22 in1023.4 mb - 0.00 in0.0 mm 0.00 in0.0 mm
11:47 AM 59.4°F15.2°C 50.4°F10.2°C 72% 3.1 mph NE5.0 kmh NE 2.9 mph4.7 kmh 30.22 in1023.4 mb - 0.00 in0.0 mm 0.00 in0.0 mm
11:52 AM 59.7°F15.4°C 50.0°F10.0°C 70% 3.1 mph N5.0 kmh N 4.0 mph6.4 kmh 30.22 in1023.4 mb - 0.00 in0.0 mm 0.00 in0.0 mm
11:57 AM 60.6°F15.9°C 50.4°F10.2°C 69% 2.9 mph NNE4.7 kmh NNE 2.9 mph4.7 kmh 30.22 in1023.4 mb - 0.00 in0.0 mm 0.00 in0.0 mm
12:02 PM 60.4°F15.8°C 50.2°F10.1°C 69% 3.4 mph NNE5.5 kmh NNE 2.9 mph4.7 kmh 30.22 in1023.4 mb - 0.00 in0.0 mm 0.00 in0.0 mm
12:07 PM 60.3°F15.7°C 50.0°F10.0°C 69% 3.4 mph NNE5.5 kmh NNE 2.0 mph3.2 kmh 30.22 in1023.4 mb - 0.00 in0.0 mm 0.00 in0.0 mm
12:12 PM 61.5°F16.4°C 50.5°F10.3°C 67% 3.8 mph NNW6.1 kmh NNW 4.0 mph6.4 kmh 30.22 in1023.4 mb - 0.00 in0.0 mm 0.00 in0.0 mm
12:17 PM 62.2°F16.8°C 50.7°F10.4°C 66% 4.3 mph NNW6.9 kmh NNW 8.1 mph13.0 kmh 30.22 in1023.4 mb - 0.00 in0.0 mm 0.00 in0.0 mm
12:22 PM 62.1°F16.7°C 50.9°F10.5°C 67% 3.8 mph NNW6.1 kmh NNW 4.0 mph6.4 kmh 30.22 in1023.4 mb - 0.00 in0.0 mm 0.00 in0.0 mm
12:27 PM 62.4°F16.9°C 50.5°F10.3°C 65% 4.5 mph NE7.2 kmh NE 6.9 mph11.1 kmh 30.22 in1023.4 mb - 0.00 in0.0 mm 0.00 in0.0 mm
12:32 PM 62.6°F17.0°C 50.7°F10.4°C 65% 4.7 mph N7.6 kmh N 2.9 mph4.7 kmh 30.21 in1023.0 mb - 0.00 in0.0 mm 0.00 in0.0 mm
12:37 PM 63.3°F17.4°C 50.9°F10.5°C 64% 4.3 mph NNW6.9 kmh NNW 4.0 mph6.4 kmh 30.21 in1023.0 mb - 0.00 in0.0 mm 0.00 in0.0 mm
12:42 PM 63.1°F17.3°C 50.4°F10.2°C 63% 3.8 mph N6.1 kmh N 2.9 mph4.7 kmh 30.21 in1023.0 mb - 0.00 in0.0 mm 0.00 in0.0 mm
12:47 PM 63.7°F17.6°C 50.4°F10.2°C 62% 3.1 mph N5.0 kmh N -- 30.21 in1023.0 mb - 0.00 in0.0 mm 0.00 in0.0 mm
12:52 PM 63.9°F17.7°C 51.1°F10.6°C 63% 2.7 mph NNE4.3 kmh NNE 2.0 mph3.2 kmh 30.20 in1022.7 mb - 0.00 in0.0 mm 0.00 in0.0 mm
12:57 PM 64.6°F18.1°C 50.9°F10.5°C 61% 2.7 mph N4.3 kmh N 2.0 mph3.2 kmh 30.20 in1022.7 mb - 0.00 in0.0 mm 0.00 in0.0 mm
01:02 PM 64.6°F18.1°C 50.9°F10.5°C 61% 3.8 mph NW6.1 kmh NW 6.9 mph11.1 kmh 30.20 in1022.7 mb - 0.00 in0.0 mm 0.00 in0.0 mm
01:07 PM 64.9°F18.3°C 50.2°F10.1°C 59% 4.0 mph NNW6.4 kmh NNW 4.0 mph6.4 kmh 30.20 in1022.7 mb - 0.00 in0.0 mm 0.00 in0.0 mm
01:12 PM 65.7°F18.7°C 50.9°F10.5°C 59% 4.3 mph 6.9 kmh 4.0 mph6.4 kmh 30.19 in1022.4 mb - 0.00 in0.0 mm 0.00 in0.0 mm
01:17 PM 66.2°F19.0°C 49.1°F9.5°C 54% 5.1 mph NNE8.2 kmh NNE 6.0 mph9.7 kmh 30.19 in1022.4 mb - 0.00 in0.0 mm 0.00 in0.0 mm
01:22 PM 66.4°F19.1°C 49.3°F9.6°C 54% 5.8 mph NE9.3 kmh NE 6.0 mph9.7 kmh 30.19 in1022.4 mb - 0.00 in0.0 mm 0.00 in0.0 mm
01:27 PM 66.0°F18.9°C 47.3°F8.5°C 51% 5.8 mph NE9.3 kmh NE 8.9 mph14.3 kmh 30.19 in1022.4 mb - 0.00 in0.0 mm 0.00 in0.0 mm
01:32 PM 66.6°F19.2°C 48.4°F9.1°C 52% 5.6 mph NE9.0 kmh NE -- 30.19 in1022.4 mb - 0.00 in0.0 mm 0.00 in0.0 mm
01:37 PM 66.6°F19.2°C 47.8°F8.8°C 51% 4.5 mph N7.2 kmh N 0.9 mph1.4 kmh 30.19 in1022.4 mb - 0.00 in0.0 mm 0.00 in0.0 mm
01:42 PM 66.6°F19.2°C 45.7°F7.6°C 47% 4.3 mph NE6.9 kmh NE 6.0 mph9.7 kmh 30.18 in1022.0 mb - 0.00 in0.0 mm 0.00 in0.0 mm
01:47 PM 66.7°F19.3°C 46.4°F8.0°C 48% 5.4 mph NNE8.7 kmh NNE 2.0 mph3.2 kmh 30.18 in1022.0 mb - 0.00 in0.0 mm 0.00 in0.0 mm
01:52 PM 66.7°F19.3°C 47.5°F8.6°C 50% 4.5 mph NE7.2 kmh NE 2.0 mph3.2 kmh 30.18 in1022.0 mb - 0.00 in0.0 mm 0.00 in0.0 mm
01:57 PM 67.6°F19.8°C 46.8°F8.2°C 47% 3.8 mph NNW6.1 kmh NNW 2.9 mph4.7 kmh 30.18 in1022.0 mb - 0.00 in0.0 mm 0.00 in0.0 mm
02:02 PM 68.0°F20.0°C 45.3°F7.4°C 44% 4.3 mph NE6.9 kmh NE 2.9 mph4.7 kmh 30.18 in1022.0 mb - 0.00 in0.0 mm 0.00 in0.0 mm
02:07 PM 68.2°F20.1°C 47.1°F8.4°C 47% 4.0 mph N6.4 kmh N 0.9 mph1.4 kmh 30.18 in1022.0 mb - 0.00 in0.0 mm 0.00 in0.0 mm
02:12 PM 68.0°F20.0°C 44.6°F7.0°C 43% 3.8 mph NNW6.1 kmh NNW 4.0 mph6.4 kmh 30.17 in1021.7 mb - 0.00 in0.0 mm 0.00 in0.0 mm
02:17 PM 68.2°F20.1°C 46.0°F7.8°C 45% 3.1 mph NW5.0 kmh NW 2.9 mph4.7 kmh 30.17 in1021.7 mb - 0.00 in0.0 mm 0.00 in0.0 mm
02:22 PM 68.2°F20.1°C 46.6°F8.1°C 46% 4.0 mph NNE6.4 kmh NNE 0.9 mph1.4 kmh 30.17 in1021.7 mb - 0.00 in0.0 mm 0.00 in0.0 mm
02:27 PM 68.5°F20.3°C 46.4°F8.0°C 45% 3.4 mph 5.5 kmh -- 30.17 in1021.7 mb - 0.00 in0.0 mm 0.00 in0.0 mm
02:32 PM 69.3°F20.7°C 46.4°F8.0°C 44% 2.9 mph N4.7 kmh N 8.9 mph14.3 kmh 30.17 in1021.7 mb - 0.00 in0.0 mm 0.00 in0.0 mm
02:37 PM 69.3°F20.7°C 46.4°F8.0°C 44% 4.5 mph NNE7.2 kmh NNE 4.0 mph6.4 kmh 30.17 in1021.7 mb - 0.00 in0.0 mm 0.00 in0.0 mm
02:42 PM 69.6°F20.9°C 46.8°F8.2°C 44% 4.9 mph NE7.9 kmh NE 10.1 mph16.3 kmh 30.16 in1021.3 mb - 0.00 in0.0 mm 0.00 in0.0 mm
02:47 PM 69.4°F20.8°C 46.0°F7.8°C 43% 5.1 mph N8.2 kmh N 2.9 mph4.7 kmh 30.16 in1021.3 mb - 0.00 in0.0 mm 0.00 in0.0 mm
02:52 PM 69.8°F21.0°C 45.7°F7.6°C 42% 5.4 mph N8.7 kmh N 2.0 mph3.2 kmh 30.16 in1021.3 mb - 0.00 in0.0 mm 0.00 in0.0 mm
02:57 PM 70.0°F21.1°C 46.4°F8.0°C 43% 4.9 mph NNE7.9 kmh NNE 2.9 mph4.7 kmh 30.16 in1021.3 mb - 0.00 in0.0 mm 0.00 in0.0 mm
03:02 PM 70.2°F21.2°C 46.0°F7.8°C 42% 3.8 mph NE6.1 kmh NE 4.0 mph6.4 kmh 30.16 in1021.3 mb - 0.00 in0.0 mm 0.00 in0.0 mm
03:07 PM 70.2°F21.2°C 46.0°F7.8°C 42% 5.4 mph 8.7 kmh 6.0 mph9.7 kmh 30.16 in1021.3 mb - 0.00 in0.0 mm 0.00 in0.0 mm
03:12 PM 69.8°F21.0°C 45.7°F7.6°C 42% 6.0 mph NNE9.7 kmh NNE 2.0 mph3.2 kmh 30.16 in1021.3 mb - 0.00 in0.0 mm 0.00 in0.0 mm
03:17 PM 70.2°F21.2°C 45.3°F7.4°C 41% 4.5 mph NE7.2 kmh NE 4.9 mph7.9 kmh 30.16 in1021.3 mb - 0.00 in0.0 mm 0.00 in0.0 mm
03:22 PM 70.3°F21.3°C 46.2°F7.9°C 42% 3.4 mph E5.5 kmh E 0.9 mph1.4 kmh 30.15 in1021.0 mb - 0.00 in0.0 mm 0.00 in0.0 mm
03:27 PM 70.3°F21.3°C 45.5°F7.5°C 41% 3.6 mph NNE5.8 kmh NNE 4.0 mph6.4 kmh 30.16 in1021.3 mb - 0.00 in0.0 mm 0.00 in0.0 mm
03:32 PM 70.5°F21.4°C 45.0°F7.2°C 40% 4.0 mph NE6.4 kmh NE 8.9 mph14.3 kmh 30.15 in1021.0 mb - 0.00 in0.0 mm 0.00 in0.0 mm
03:37 PM 70.5°F21.4°C 46.9°F8.3°C 43% 4.7 mph NE7.6 kmh NE 8.1 mph13.0 kmh 30.15 in1021.0 mb - 0.00 in0.0 mm 0.00 in0.0 mm
03:42 PM 70.7°F21.5°C 45.9°F7.7°C 41% 5.6 mph NNW9.0 kmh NNW 4.9 mph7.9 kmh 30.15 in1021.0 mb - 0.00 in0.0 mm 0.00 in0.0 mm
03:47 PM 70.5°F21.4°C 46.4°F8.0°C 42% 4.9 mph N7.9 kmh N 2.9 mph4.7 kmh 30.15 in1021.0 mb - 0.00 in0.0 mm 0.00 in0.0 mm
03:52 PM 71.4°F21.9°C 47.1°F8.4°C 42% 4.5 mph N7.2 kmh N 6.0 mph9.7 kmh 30.15 in1021.0 mb - 0.00 in0.0 mm 0.00 in0.0 mm
03:57 PM 71.1°F21.7°C 46.2°F7.9°C 41% 4.7 mph NE7.6 kmh NE 6.0 mph9.7 kmh 30.15 in1021.0 mb - 0.00 in0.0 mm 0.00 in0.0 mm
04:02 PM 71.6°F22.0°C 46.0°F7.8°C 40% 4.9 mph NNE7.9 kmh NNE 0.9 mph1.4 kmh 30.15 in1021.0 mb - 0.00 in0.0 mm 0.00 in0.0 mm
04:07 PM 71.8°F22.1°C 45.5°F7.5°C 39% 4.9 mph 7.9 kmh 6.0 mph9.7 kmh 30.15 in1021.0 mb - 0.00 in0.0 mm 0.00 in0.0 mm
04:12 PM 71.8°F22.1°C 44.8°F7.1°C 38% 5.6 mph NNW9.0 kmh NNW 10.1 mph16.3 kmh 30.15 in1021.0 mb - 0.00 in0.0 mm 0.00 in0.0 mm
04:17 PM 72.3°F22.4°C 45.3°F7.4°C 38% 5.6 mph NNW9.0 kmh NNW 10.1 mph16.3 kmh 30.15 in1021.0 mb - 0.00 in0.0 mm 0.00 in0.0 mm
04:22 PM 72.1°F22.3°C 44.4°F6.9°C 37% 5.4 mph NE8.7 kmh NE 4.9 mph7.9 kmh 30.15 in1021.0 mb - 0.00 in0.0 mm 0.00 in0.0 mm
04:27 PM 72.0°F22.2°C 43.5°F6.4°C 36% 5.1 mph NNE8.2 kmh NNE 8.1 mph13.0 kmh 30.14 in1020.7 mb - 0.00 in0.0 mm 0.00 in0.0 mm
04:32 PM 72.0°F22.2°C 45.0°F7.2°C 38% 4.5 mph N7.2 kmh N 8.1 mph13.0 kmh 30.14 in1020.7 mb - 0.00 in0.0 mm 0.00 in0.0 mm
04:37 PM 72.1°F22.3°C 44.4°F6.9°C 37% 4.9 mph N7.9 kmh N 8.9 mph14.3 kmh 30.14 in1020.7 mb - 0.00 in0.0 mm 0.00 in0.0 mm
04:42 PM 72.1°F22.3°C 44.4°F6.9°C 37% 6.3 mph 10.1 kmh 8.9 mph14.3 kmh 30.14 in1020.7 mb - 0.00 in0.0 mm 0.00 in0.0 mm
04:47 PM 72.0°F22.2°C 44.2°F6.8°C 37% 6.7 mph N10.8 kmh N 6.0 mph9.7 kmh 30.14 in1020.7 mb - 0.00 in0.0 mm 0.00 in0.0 mm
04:52 PM 72.0°F22.2°C 43.5°F6.4°C 36% 5.8 mph N9.3 kmh N 4.0 mph6.4 kmh 30.14 in1020.7 mb - 0.00 in0.0 mm 0.00 in0.0 mm
04:57 PM 72.0°F22.2°C 44.2°F6.8°C 37% 4.7 mph N7.6 kmh N 6.0 mph9.7 kmh 30.14 in1020.7 mb - 0.00 in0.0 mm 0.00 in0.0 mm
05:02 PM 72.0°F22.2°C 44.2°F6.8°C 37% 5.6 mph 9.0 kmh 6.0 mph9.7 kmh 30.14 in1020.7 mb - 0.00 in0.0 mm 0.00 in0.0 mm
05:07 PM 72.0°F22.2°C 44.2°F6.8°C 37% 5.8 mph NNW9.3 kmh NNW 4.0 mph6.4 kmh 30.14 in1020.7 mb - 0.00 in0.0 mm 0.00 in0.0 mm
05:12 PM 71.8°F22.1°C 44.1°F6.7°C 37% 4.3 mph N6.9 kmh N 4.0 mph6.4 kmh 30.14 in1020.7 mb - 0.00 in0.0 mm 0.00 in0.0 mm
05:17 PM 71.6°F22.0°C 43.9°F6.6°C 37% 3.8 mph NNW6.1 kmh NNW 4.0 mph6.4 kmh 30.14 in1020.7 mb - 0.00 in0.0 mm 0.00 in0.0 mm
05:22 PM 71.4°F21.9°C 43.7°F6.5°C 37% 4.5 mph NE7.2 kmh NE 4.9 mph7.9 kmh 30.14 in1020.7 mb - 0.00 in0.0 mm 0.00 in0.0 mm
05:27 PM 71.2°F21.8°C 43.7°F6.5°C 37% 4.5 mph NE7.2 kmh NE 4.0 mph6.4 kmh 30.14 in1020.7 mb - 0.00 in0.0 mm 0.00 in0.0 mm
05:32 PM 71.2°F21.8°C 43.7°F6.5°C 37% 4.0 mph NNE6.4 kmh NNE 4.0 mph6.4 kmh 30.14 in1020.7 mb - 0.00 in0.0 mm 0.00 in0.0 mm
05:37 PM 71.1°F21.7°C 46.8°F8.2°C 42% 4.7 mph NNW7.6 kmh NNW 4.0 mph6.4 kmh 30.14 in1020.7 mb - 0.00 in0.0 mm 0.00 in0.0 mm
05:42 PM 70.9°F21.6°C 44.8°F7.1°C 39% 5.8 mph N9.3 kmh N 2.9 mph4.7 kmh 30.14 in1020.7 mb - 0.00 in0.0 mm 0.00 in0.0 mm
05:47 PM 70.5°F21.4°C 46.4°F8.0°C 42% 5.4 mph NW8.7 kmh NW 6.0 mph9.7 kmh 30.14 in1020.7 mb - 0.00 in0.0 mm 0.00 in0.0 mm
05:52 PM 70.3°F21.3°C 46.8°F8.2°C 43% 6.3 mph NNW10.1 kmh NNW 8.9 mph14.3 kmh 30.14 in1020.7 mb - 0.00 in0.0 mm 0.00 in0.0 mm
05:57 PM 70.2°F21.2°C 46.6°F8.1°C 43% 6.7 mph N10.8 kmh N 4.0 mph6.4 kmh 30.15 in1021.0 mb - 0.00 in0.0 mm 0.00 in0.0 mm
06:02 PM 70.0°F21.1°C 47.7°F8.7°C 45% 6.5 mph N10.5 kmh N 4.9 mph7.9 kmh 30.15 in1021.0 mb - 0.00 in0.0 mm 0.00 in0.0 mm
06:07 PM 69.4°F20.8°C 46.6°F8.1°C 44% 6.7 mph NNW10.8 kmh NNW 4.9 mph7.9 kmh 30.14 in1020.7 mb - 0.00 in0.0 mm 0.00 in0.0 mm
06:12 PM 69.3°F20.7°C 46.9°F8.3°C 45% 5.8 mph N9.3 kmh N 8.9 mph14.3 kmh 30.14 in1020.7 mb - 0.00 in0.0 mm 0.00 in0.0 mm
06:17 PM 68.9°F20.5°C 47.8°F8.8°C 47% 5.4 mph N8.7 kmh N 8.1 mph13.0 kmh 30.15 in1021.0 mb - 0.00 in0.0 mm 0.00 in0.0 mm
06:22 PM 68.5°F20.3°C 48.0°F8.9°C 48% 4.5 mph NNW7.2 kmh NNW 6.0 mph9.7 kmh 30.15 in1021.0 mb - 0.00 in0.0 mm 0.00 in0.0 mm
06:27 PM 68.4°F20.2°C 48.4°F9.1°C 49% 4.5 mph N7.2 kmh N 2.0 mph3.2 kmh 30.15 in1021.0 mb - 0.00 in0.0 mm 0.00 in0.0 mm
06:32 PM 68.4°F20.2°C 48.4°F9.1°C 49% 4.7 mph N7.6 kmh N 4.9 mph7.9 kmh 30.15 in1021.0 mb - 0.00 in0.0 mm 0.00 in0.0 mm
06:37 PM 68.0°F20.0°C 48.7°F9.3°C 50% 4.5 mph N7.2 kmh N 2.9 mph4.7 kmh 30.15 in1021.0 mb - 0.00 in0.0 mm 0.00 in0.0 mm
06:42 PM 67.6°F19.8°C 48.9°F9.4°C 51% 3.8 mph N6.1 kmh N 2.0 mph3.2 kmh 30.14 in1020.7 mb - 0.00 in0.0 mm 0.00 in0.0 mm
06:47 PM 67.1°F19.5°C 48.9°F9.4°C 52% 2.9 mph NNW4.7 kmh NNW 2.9 mph4.7 kmh 30.14 in1020.7 mb - 0.00 in0.0 mm 0.00 in0.0 mm
06:52 PM 66.6°F19.2°C 48.9°F9.4°C 53% 2.7 mph NNW4.3 kmh NNW 2.9 mph4.7 kmh 30.15 in1021.0 mb - 0.00 in0.0 mm 0.00 in0.0 mm
06:57 PM 66.2°F19.0°C 49.1°F9.5°C 54% 2.7 mph NNW4.3 kmh NNW 2.9 mph4.7 kmh 30.15 in1021.0 mb - 0.00 in0.0 mm 0.00 in0.0 mm
07:02 PM 65.5°F18.6°C 48.9°F9.4°C 55% 2.7 mph NNW4.3 kmh NNW 2.9 mph4.7 kmh 30.15 in1021.0 mb - 0.00 in0.0 mm 0.00 in0.0 mm
07:07 PM 64.9°F18.3°C 48.9°F9.4°C 56% 2.5 mph NNW4.0 kmh NNW 2.0 mph3.2 kmh 30.15 in1021.0 mb - 0.00 in0.0 mm 0.00 in0.0 mm
07:12 PM 64.6°F18.1°C 48.9°F9.4°C 57% 2.0 mph NNW3.2 kmh NNW 4.0 mph6.4 kmh 30.15 in1021.0 mb - 0.00 in0.0 mm 0.00 in0.0 mm
07:17 PM 64.6°F18.1°C 48.9°F9.4°C 57% 2.5 mph NNW4.0 kmh NNW 2.0 mph3.2 kmh 30.15 in1021.0 mb - 0.00 in0.0 mm 0.00 in0.0 mm
07:22 PM 64.6°F18.1°C 48.9°F9.4°C 57% 3.1 mph NW5.0 kmh NW 2.0 mph3.2 kmh 30.15 in1021.0 mb - 0.00 in0.0 mm 0.00 in0.0 mm
07:27 PM 64.2°F17.9°C 48.7°F9.3°C 57% 2.9 mph NW4.7 kmh NW 2.0 mph3.2 kmh 30.15 in1021.0 mb - 0.00 in0.0 mm 0.00 in0.0 mm
07:32 PM 63.9°F17.7°C 48.7°F9.3°C 58% 2.0 mph NW3.2 kmh NW 2.9 mph4.7 kmh 30.15 in1021.0 mb - 0.00 in0.0 mm 0.00 in0.0 mm
07:37 PM 63.7°F17.6°C 49.1°F9.5°C 59% 1.8 mph NW2.9 kmh NW 2.0 mph3.2 kmh 30.15 in1021.0 mb - 0.00 in0.0 mm 0.00 in0.0 mm
07:42 PM 63.3°F17.4°C 48.7°F9.3°C 59% 1.8 mph NW2.9 kmh NW 2.0 mph3.2 kmh 30.15 in1021.0 mb - 0.00 in0.0 mm 0.00 in0.0 mm
07:47 PM 63.7°F17.6°C 49.1°F9.5°C 59% 1.3 mph NW2.1 kmh NW 0.9 mph1.4 kmh 30.15 in1021.0 mb - 0.00 in0.0 mm 0.00 in0.0 mm
07:52 PM 64.2°F17.9°C 49.1°F9.5°C 58% 0.9 mph NW1.4 kmh NW 2.0 mph3.2 kmh 30.15 in1021.0 mb - 0.00 in0.0 mm 0.00 in0.0 mm
07:57 PM 64.2°F17.9°C 49.1°F9.5°C 58% 1.1 mph NW1.8 kmh NW 0.9 mph1.4 kmh 30.15 in1021.0 mb - 0.00 in0.0 mm 0.00 in0.0 mm
08:02 PM 64.0°F17.8°C 49.5°F9.7°C 59% 0.9 mph NW1.4 kmh NW 0.9 mph1.4 kmh 30.15 in1021.0 mb - 0.00 in0.0 mm 0.00 in0.0 mm
08:07 PM 63.1°F17.3°C 49.1°F9.5°C 60% 0.4 mph NW0.6 kmh NW -- 30.15 in1021.0 mb - 0.00 in0.0 mm 0.00 in0.0 mm
08:12 PM 63.3°F17.4°C 49.3°F9.6°C 60% 0.2 mph NW0.3 kmh NW 0.9 mph1.4 kmh 30.15 in1021.0 mb - 0.00 in0.0 mm 0.00 in0.0 mm
08:17 PM 63.3°F17.4°C 49.3°F9.6°C 60% 0.7 mph NW1.1 kmh NW 0.9 mph1.4 kmh 30.15 in1021.0 mb - 0.00 in0.0 mm 0.00 in0.0 mm
08:22 PM 63.1°F17.3°C 49.1°F9.5°C 60% 1.1 mph NW1.8 kmh NW 0.9 mph1.4 kmh 30.15 in1021.0 mb - 0.00 in0.0 mm 0.00 in0.0 mm
08:27 PM 62.6°F17.0°C 48.9°F9.4°C 61% 1.1 mph NW1.8 kmh NW 2.0 mph3.2 kmh 30.15 in1021.0 mb - 0.00 in0.0 mm 0.00 in0.0 mm
08:32 PM 62.1°F16.7°C 48.9°F9.4°C 62% 1.1 mph NW1.8 kmh NW 0.9 mph1.4 kmh 30.15 in1021.0 mb - 0.00 in0.0 mm 0.00 in0.0 mm
08:37 PM 61.7°F16.5°C 48.9°F9.4°C 63% 1.6 mph NW2.6 kmh NW 4.0 mph6.4 kmh 30.15 in1021.0 mb - 0.00 in0.0 mm 0.00 in0.0 mm
08:42 PM 61.5°F16.4°C 49.3°F9.6°C 64% 1.8 mph NW2.9 kmh NW 2.9 mph4.7 kmh 30.15 in1021.0 mb - 0.00 in0.0 mm 0.00 in0.0 mm
08:47 PM 61.9°F16.6°C 49.1°F9.5°C 63% 1.6 mph NW2.6 kmh NW 0.9 mph1.4 kmh 30.16 in1021.3 mb - 0.00 in0.0 mm 0.00 in0.0 mm
08:52 PM 61.9°F16.6°C 49.1°F9.5°C 63% 0.9 mph NW1.4 kmh NW 2.0 mph3.2 kmh 30.16 in1021.3 mb - 0.00 in0.0 mm 0.00 in0.0 mm
08:57 PM 61.9°F16.6°C 49.1°F9.5°C 63% 0.7 mph NW1.1 kmh NW 2.0 mph3.2 kmh 30.16 in1021.3 mb - 0.00 in0.0 mm 0.00 in0.0 mm
09:02 PM 61.5°F16.4°C 49.3°F9.6°C 64% 0.9 mph NW1.4 kmh NW 0.9 mph1.4 kmh 30.16 in1021.3 mb - 0.00 in0.0 mm 0.00 in0.0 mm
09:07 PM 61.3°F16.3°C 49.1°F9.5°C 64% 1.3 mph NW2.1 kmh NW 2.9 mph4.7 kmh 30.16 in1021.3 mb - 0.00 in0.0 mm 0.00 in0.0 mm
09:12 PM 61.3°F16.3°C 49.1°F9.5°C 64% 1.6 mph NW2.6 kmh NW 2.0 mph3.2 kmh 30.16 in1021.3 mb - 0.00 in0.0 mm 0.00 in0.0 mm
09:17 PM 61.0°F16.1°C 49.1°F9.5°C 65% 1.8 mph NW2.9 kmh NW 0.9 mph1.4 kmh 30.16 in1021.3 mb - 0.00 in0.0 mm 0.00 in0.0 mm
09:22 PM 61.0°F16.1°C 49.1°F9.5°C 65% 1.6 mph NW2.6 kmh NW 2.0 mph3.2 kmh 30.16 in1021.3 mb - 0.00 in0.0 mm 0.00 in0.0 mm
09:27 PM 61.0°F16.1°C 49.5°F9.7°C 66% 1.1 mph NW1.8 kmh NW 0.9 mph1.4 kmh 30.16 in1021.3 mb - 0.00 in0.0 mm 0.00 in0.0 mm
09:32 PM 60.8°F16.0°C 49.5°F9.7°C 66% 1.1 mph NW1.8 kmh NW 0.9 mph1.4 kmh 30.16 in1021.3 mb - 0.00 in0.0 mm 0.00 in0.0 mm
09:37 PM 60.6°F15.9°C 49.3°F9.6°C 66% 1.6 mph NW2.6 kmh NW 0.9 mph1.4 kmh 30.17 in1021.7 mb - 0.00 in0.0 mm 0.00 in0.0 mm
09:42 PM 60.6°F15.9°C 49.3°F9.6°C 66% 1.3 mph NW2.1 kmh NW -- 30.17 in1021.7 mb - 0.00 in0.0 mm 0.00 in0.0 mm
09:47 PM 60.3°F15.7°C 49.3°F9.6°C 67% 0.7 mph NW1.1 kmh NW 0.9 mph1.4 kmh 30.17 in1021.7 mb - 0.00 in0.0 mm 0.00 in0.0 mm
09:52 PM 59.5°F15.3°C 48.9°F9.4°C 68% 0.4 mph NW0.6 kmh NW -- 30.17 in1021.7 mb - 0.00 in0.0 mm 0.00 in0.0 mm
09:57 PM 58.3°F14.6°C 48.2°F9.0°C 69% 0.2 mph NW0.3 kmh NW -- 30.17 in1021.7 mb - 0.00 in0.0 mm 0.00 in0.0 mm
10:02 PM 57.6°F14.2°C 48.6°F9.2°C 72% Calm Calm -- 30.17 in1021.7 mb - 0.00 in0.0 mm 0.00 in0.0 mm
10:07 PM 57.6°F14.2°C 48.6°F9.2°C 72% Calm Calm -- 30.17 in1021.7 mb - 0.00 in0.0 mm 0.00 in0.0 mm
10:12 PM 58.3°F14.6°C 48.9°F9.4°C 71% Calm Calm -- 30.17 in1021.7 mb - 0.00 in0.0 mm 0.00 in0.0 mm
10:17 PM 58.3°F14.6°C 48.9°F9.4°C 71% Calm Calm 0.9 mph1.4 kmh 30.17 in1021.7 mb - 0.00 in0.0 mm 0.00 in0.0 mm
10:22 PM 57.7°F14.3°C 48.4°F9.1°C 71% 0.2 mph NW0.3 kmh NW -- 30.17 in1021.7 mb - 0.00 in0.0 mm 0.00 in0.0 mm
10:27 PM 56.7°F13.7°C 48.0°F8.9°C 73% 0.2 mph NW0.3 kmh NW -- 30.17 in1021.7 mb - 0.00 in0.0 mm 0.00 in0.0 mm
10:32 PM 55.8°F13.2°C 48.0°F8.9°C 75% Calm Calm -- 30.17 in1021.7 mb - 0.00 in0.0 mm 0.00 in0.0 mm
10:37 PM 55.6°F13.1°C 48.2°F9.0°C 76% Calm Calm -- 30.17 in1021.7 mb - 0.00 in0.0 mm 0.00 in0.0 mm
10:42 PM 55.2°F12.9°C 47.8°F8.8°C 76% Calm Calm -- 30.17 in1021.7 mb - 0.00 in0.0 mm 0.00 in0.0 mm
10:47 PM 55.6°F13.1°C 48.6°F9.2°C 77% Calm Calm -- 30.17 in1021.7 mb - 0.00 in0.0 mm 0.00 in0.0 mm
10:52 PM 55.8°F13.2°C 48.4°F9.1°C 76% Calm Calm -- 30.17 in1021.7 mb - 0.00 in0.0 mm 0.00 in0.0 mm
10:57 PM 55.9°F13.3°C 48.6°F9.2°C 76% Calm Calm -- 30.17 in1021.7 mb - 0.00 in0.0 mm 0.00 in0.0 mm
11:02 PM 56.1°F13.4°C 48.7°F9.3°C 76% Calm Calm -- 30.17 in1021.7 mb - 0.00 in0.0 mm 0.00 in0.0 mm
11:07 PM 56.1°F13.4°C 48.4°F9.1°C 75% Calm Calm -- 30.17 in1021.7 mb - 0.00 in0.0 mm 0.00 in0.0 mm
11:12 PM 55.9°F13.3°C 48.6°F9.2°C 76% Calm Calm -- 30.18 in1022.0 mb - 0.00 in0.0 mm 0.00 in0.0 mm
11:17 PM 55.8°F13.2°C 48.4°F9.1°C 76% Calm Calm -- 30.17 in1021.7 mb - 0.00 in0.0 mm 0.00 in0.0 mm
11:22 PM 55.8°F13.2°C 48.4°F9.1°C 76% Calm Calm -- 30.18 in1022.0 mb - 0.00 in0.0 mm 0.00 in0.0 mm
11:27 PM 55.8°F13.2°C 48.4°F9.1°C 76% Calm Calm -- 30.18 in1022.0 mb - 0.00 in0.0 mm 0.00 in0.0 mm
11:32 PM 54.7°F12.6°C 46.9°F8.3°C 75% Calm Calm -- 30.18 in1022.0 mb - 0.00 in0.0 mm 0.00 in0.0 mm
11:37 PM 52.7°F11.5°C 46.4°F8.0°C 79% Calm Calm -- 30.18 in1022.0 mb - 0.00 in0.0 mm 0.00 in0.0 mm
11:42 PM 51.8°F11.0°C 46.4°F8.0°C 82% Calm Calm -- 30.18 in1022.0 mb - 0.00 in0.0 mm 0.00 in0.0 mm
11:47 PM 51.8°F11.0°C 46.4°F8.0°C 82% Calm Calm -- 30.18 in1022.0 mb - 0.00 in0.0 mm 0.00 in0.0 mm
11:52 PM 52.3°F11.3°C 47.3°F8.5°C 83% Calm Calm -- 30.18 in1022.0 mb - 0.00 in0.0 mm 0.00 in0.0 mm
11:57 PM 52.5°F11.4°C 47.1°F8.4°C 82% Calm Calm -- 30.18 in1022.0 mb - 0.00 in0.0 mm 0.00 in0.0 mm